createdAt,value
2022-10-06T00:01:32.407Z,2.00
2022-10-06T00:04:00.737Z,2.20
2022-10-06T00:06:29.145Z,2.07
2022-10-06T00:08:58.904Z,1.63
2022-10-06T00:11:27.353Z,1.60
2022-10-06T00:13:55.724Z,1.90
2022-10-06T00:16:24.605Z,1.37
2022-10-06T00:18:53.006Z,2.20
2022-10-06T00:21:21.346Z,1.50
2022-10-06T00:23:49.582Z,1.90
2022-10-06T00:26:19.243Z,1.53
2022-10-06T00:28:48.529Z,1.60
2022-10-06T00:31:17.462Z,2.37
2022-10-06T00:33:45.853Z,1.90
2022-10-06T00:36:15.330Z,2.13
2022-10-06T00:38:43.797Z,1.90
2022-10-06T00:41:14.954Z,2.40
2022-10-06T00:43:51.028Z,2.20
2022-10-06T00:46:33.845Z,2.30
2022-10-06T00:49:07.705Z,2.03
2022-10-06T00:51:40.324Z,1.90
2022-10-06T00:54:09.508Z,2.07
2022-10-06T00:56:40.235Z,2.43
2022-10-06T00:59:13.545Z,2.07
2022-10-06T01:01:48.259Z,1.60
2022-10-06T01:04:19.097Z,1.80
2022-10-06T01:06:52.057Z,1.63
2022-10-06T01:09:22.465Z,2.10
2022-10-06T01:11:53.638Z,2.00
2022-10-06T01:14:24.826Z,2.00
2022-10-06T01:16:59.652Z,1.73
2022-10-06T01:19:43.903Z,1.70
2022-10-06T01:22:15.498Z,1.70
2022-10-06T01:24:47.716Z,2.60
2022-10-06T01:27:17.694Z,2.10
2022-10-06T01:29:46.473Z,2.60
2022-10-06T01:32:14.860Z,2.10
2022-10-06T01:34:43.166Z,2.00
2022-10-06T01:37:11.631Z,2.37
2022-10-06T01:39:39.915Z,2.50
2022-10-06T01:42:11.770Z,1.93
2022-10-06T01:44:40.050Z,2.10
2022-10-06T01:47:09.157Z,2.10
2022-10-06T01:49:37.405Z,2.23
2022-10-06T01:52:06.376Z,2.23
2022-10-06T01:54:36.347Z,2.33
2022-10-06T01:57:06.613Z,1.80
2022-10-06T01:59:36.389Z,1.77
2022-10-06T02:02:05.449Z,1.93
2022-10-06T02:04:34.771Z,2.10
2022-10-06T02:07:03.119Z,2.13
2022-10-06T02:09:31.416Z,1.87
2022-10-06T02:12:00.356Z,1.60
2022-10-06T02:14:32.180Z,1.77
2022-10-06T02:17:02.036Z,1.70
2022-10-06T02:19:30.311Z,1.80
2022-10-06T02:22:00.053Z,2.07
2022-10-06T02:24:28.423Z,2.03
2022-10-06T02:26:56.753Z,1.83
2022-10-06T02:29:26.119Z,2.10
2022-10-06T02:31:55.858Z,1.70
2022-10-06T02:34:26.485Z,1.87
2022-10-06T02:36:55.252Z,1.87
2022-10-06T02:39:23.613Z,1.63
2022-10-06T02:41:51.938Z,1.60
2022-10-06T02:44:21.627Z,2.03
2022-10-06T02:46:50.555Z,1.60
2022-10-06T02:49:19.424Z,1.60
2022-10-06T02:51:50.015Z,1.40
2022-10-06T02:54:18.291Z,1.60
2022-10-06T02:56:47.894Z,1.60
2022-10-06T02:59:16.272Z,1.50
2022-10-06T03:01:44.835Z,1.50
2022-10-06T03:04:17.465Z,1.30
2022-10-06T03:06:46.621Z,1.70
2022-10-06T03:09:21.650Z,1.60
2022-10-06T03:11:50.515Z,1.93
2022-10-06T03:14:26.735Z,1.70
2022-10-06T03:16:57.012Z,2.03
2022-10-06T03:19:28.001Z,1.63
2022-10-06T03:21:57.002Z,1.70
2022-10-06T03:24:39.765Z,1.50
2022-10-06T03:27:08.073Z,1.50
2022-10-06T03:29:36.332Z,1.63
2022-10-06T03:32:05.296Z,1.60
2022-10-06T03:34:34.573Z,2.00
2022-10-06T03:37:05.677Z,1.70
2022-10-06T03:39:34.441Z,1.93
2022-10-06T03:42:04.912Z,1.70
2022-10-06T03:44:35.154Z,1.67
2022-10-06T03:47:05.166Z,2.00
2022-10-06T03:49:34.206Z,2.00
2022-10-06T03:52:02.481Z,1.90
2022-10-06T03:54:35.585Z,1.57
2022-10-06T03:57:05.528Z,1.47
2022-10-06T03:59:35.072Z,1.50
2022-10-06T04:02:06.280Z,1.50
2022-10-06T04:04:39.401Z,1.98
2022-10-06T04:07:12.431Z,1.67
2022-10-06T04:09:42.059Z,1.90
2022-10-06T04:12:13.599Z,1.80
2022-10-06T04:14:44.922Z,1.70
2022-10-06T04:17:13.265Z,1.60
2022-10-06T04:19:42.825Z,1.97
2022-10-06T04:22:11.129Z,1.80
2022-10-06T04:24:39.434Z,1.50
2022-10-06T04:27:25.012Z,1.70
2022-10-06T04:30:08.568Z,1.63
2022-10-06T04:32:38.214Z,2.07
2022-10-06T04:35:07.085Z,1.83
2022-10-06T04:37:35.456Z,1.67
2022-10-06T04:40:05.094Z,1.97
2022-10-06T04:42:35.440Z,1.70
2022-10-06T04:45:10.602Z,2.03
2022-10-06T04:47:40.739Z,1.80
2022-10-06T04:50:09.563Z,1.67
2022-10-06T04:52:41.122Z,1.47
2022-10-06T04:55:11.204Z,1.53
2022-10-06T04:57:39.812Z,2.30
2022-10-06T05:00:25.335Z,2.07
2022-10-06T05:02:55.833Z,1.60
2022-10-06T05:05:24.918Z,1.70
2022-10-06T05:07:54.870Z,1.53
2022-10-06T05:10:23.179Z,1.70
2022-10-06T05:12:51.621Z,1.73
2022-10-06T05:15:21.748Z,1.70
2022-10-06T05:17:50.353Z,1.90
2022-10-06T05:20:22.889Z,1.63
2022-10-06T05:22:52.181Z,1.90
2022-10-06T05:25:20.702Z,1.60
2022-10-06T05:27:49.129Z,2.07
2022-10-06T05:30:17.562Z,2.03
2022-10-06T05:32:50.504Z,1.90
2022-10-06T05:35:19.660Z,1.83
2022-10-06T05:37:48.072Z,1.90
2022-10-06T05:40:17.373Z,1.73
2022-10-06T05:42:45.654Z,1.97
2022-10-06T05:45:14.130Z,1.93
2022-10-06T05:47:42.492Z,2.00
2022-10-06T05:50:13.029Z,1.90
2022-10-06T05:52:42.930Z,1.77
2022-10-06T05:55:11.515Z,1.60
2022-10-06T05:57:40.694Z,1.67
2022-10-06T06:00:10.018Z,1.63
2022-10-06T06:02:41.356Z,1.60
2022-10-06T06:05:12.574Z,1.60
2022-10-06T06:07:41.606Z,1.93
2022-10-06T06:10:10.621Z,1.70
2022-10-06T06:12:38.953Z,1.83
2022-10-06T06:15:34.997Z,2.07
2022-10-06T06:18:06.154Z,1.90
2022-10-06T06:20:35.950Z,1.80
2022-10-06T06:23:04.444Z,1.70
2022-10-06T06:25:33.419Z,1.50
2022-10-06T06:28:01.754Z,2.20
2022-10-06T06:30:30.039Z,1.87
2022-10-06T06:33:00.469Z,1.97
2022-10-06T06:35:29.619Z,2.27
2022-10-06T06:37:59.920Z,1.60
2022-10-06T06:40:29.330Z,1.80
2022-10-06T06:42:57.675Z,2.07
2022-10-06T06:45:42.072Z,2.10
2022-10-06T06:48:21.196Z,2.23
2022-10-06T06:50:58.300Z,2.13
2022-10-06T06:53:28.863Z,2.23
2022-10-06T06:55:59.628Z,2.60
2022-10-06T06:58:28.553Z,2.57
2022-10-06T07:01:05.239Z,2.50
2022-10-06T07:03:55.999Z,2.40
2022-10-06T07:06:28.069Z,2.80
2022-10-06T07:09:00.683Z,2.50
2022-10-06T07:11:32.179Z,2.67
2022-10-06T07:14:03.296Z,2.73
2022-10-06T07:16:50.347Z,2.87
2022-10-06T07:19:37.825Z,3.03
2022-10-06T07:22:32.708Z,3.47
2022-10-06T07:25:12.332Z,2.37
2022-10-06T07:27:45.982Z,2.53
2022-10-06T07:30:19.452Z,1.97
2022-10-06T07:32:52.317Z,1.87
2022-10-06T07:35:23.456Z,1.57
2022-10-06T07:37:53.340Z,1.30
2022-10-06T07:40:25.247Z,1.50
2022-10-06T07:42:53.529Z,2.00
2022-10-06T07:45:39.644Z,1.63
2022-10-06T07:48:14.396Z,1.10
2022-10-06T07:50:45.757Z,0.80
2022-10-06T07:53:15.166Z,1.00
2022-10-06T07:55:49.789Z,1.17
2022-10-06T07:58:24.162Z,1.47
2022-10-06T08:00:53.794Z,1.00
2022-10-06T08:03:22.627Z,1.33
2022-10-06T08:05:59.042Z,0.93
2022-10-06T08:08:27.794Z,1.40
2022-10-06T08:11:01.879Z,1.20
2022-10-06T08:13:32.309Z,1.27
2022-10-06T08:16:06.151Z,1.40
2022-10-06T08:18:45.909Z,1.40
2022-10-06T08:21:17.006Z,0.97
2022-10-06T08:23:46.570Z,1.20
2022-10-06T08:26:17.913Z,1.27
2022-10-06T08:28:47.879Z,1.60
2022-10-06T08:31:17.880Z,1.00
2022-10-06T08:33:47.290Z,1.00
2022-10-06T08:36:17.336Z,1.20
2022-10-06T08:38:50.151Z,1.37
2022-10-06T08:41:22.603Z,1.10
2022-10-06T08:43:57.226Z,1.40
2022-10-06T08:46:29.306Z,1.40
2022-10-06T08:48:58.941Z,1.47
2022-10-06T08:51:48.025Z,1.30
2022-10-06T08:54:26.054Z,1.20
2022-10-06T08:57:03.974Z,1.30
2022-10-06T08:59:35.320Z,1.30
2022-10-06T09:02:05.942Z,0.90
2022-10-06T09:04:35.624Z,0.80
2022-10-06T09:07:11.326Z,0.97
2022-10-06T09:10:04.842Z,1.07
2022-10-06T09:12:42.374Z,1.03
2022-10-06T09:15:24.875Z,1.40
2022-10-06T09:18:01.019Z,1.00
2022-10-06T09:20:35.407Z,1.00
2022-10-06T09:23:05.774Z,1.20
2022-10-06T09:25:34.862Z,1.03
2022-10-06T09:28:05.987Z,1.00
2022-10-06T09:30:34.288Z,1.10
2022-10-06T09:33:04.611Z,1.00
2022-10-06T09:35:36.615Z,0.87
2022-10-06T09:38:08.990Z,1.03
2022-10-06T09:40:42.077Z,1.30
2022-10-06T09:43:21.603Z,1.20
2022-10-06T09:45:51.624Z,1.60
2022-10-06T09:48:24.856Z,1.70
2022-10-06T09:51:13.979Z,1.80
2022-10-06T09:53:42.747Z,1.90
2022-10-06T09:56:15.926Z,1.37
2022-10-06T09:58:57.632Z,1.33
2022-10-06T10:01:32.648Z,1.27
2022-10-06T10:04:22.690Z,1.10
2022-10-06T10:06:51.975Z,1.30
2022-10-06T10:09:28.954Z,1.83
2022-10-06T10:12:28.723Z,1.00
2022-10-06T10:15:02.032Z,1.17
2022-10-06T10:17:39.143Z,1.37
2022-10-06T10:20:20.903Z,1.17
2022-10-06T10:22:50.174Z,1.10
2022-10-06T10:25:41.663Z,1.40
2022-10-06T10:28:24.704Z,1.17
2022-10-06T10:31:03.677Z,1.23
2022-10-06T10:33:49.617Z,1.00
2022-10-06T10:36:36.100Z,1.30
2022-10-06T10:39:12.418Z,1.23
2022-10-06T10:41:49.148Z,1.65
2022-10-06T10:44:29.639Z,1.40
2022-10-06T10:47:12.032Z,1.05
2022-10-06T10:49:44.549Z,1.40
2022-10-06T10:52:18.936Z,1.15
2022-10-06T10:54:50.658Z,1.25
2022-10-06T10:57:23.143Z,1.10
2022-10-06T10:59:59.950Z,0.98
2022-10-06T11:02:30.094Z,1.00
2022-10-06T11:05:03.986Z,1.25
2022-10-06T11:07:39.191Z,0.90
2022-10-06T11:10:14.539Z,1.23
2022-10-06T11:13:11.496Z,1.00
2022-10-06T11:15:55.989Z,0.85
2022-10-06T11:18:37.820Z,0.82
2022-10-06T11:21:12.543Z,0.88
2022-10-06T11:23:51.063Z,1.10
2022-10-06T11:26:31.860Z,0.90
2022-10-06T11:29:10.688Z,0.85
2022-10-06T11:31:46.128Z,0.80
2022-10-06T11:34:16.071Z,0.75
2022-10-06T11:36:50.500Z,0.85
2022-10-06T11:39:25.296Z,0.93
2022-10-06T11:42:02.188Z,1.05
2022-10-06T11:44:38.593Z,0.80
2022-10-06T11:47:10.402Z,1.02
2022-10-06T11:49:52.210Z,0.80
2022-10-06T11:52:56.514Z,1.00
2022-10-06T11:55:26.605Z,0.80
2022-10-06T11:58:42.217Z,0.85
2022-10-06T12:01:50.089Z,0.85
2022-10-06T12:04:24.099Z,0.90
2022-10-06T12:06:56.960Z,0.73
2022-10-06T12:09:53.481Z,1.00
2022-10-06T12:12:47.708Z,1.00
2022-10-06T12:17:05.675Z,1.00
2022-10-06T12:18:42.546Z,1.08
2022-10-06T12:21:30.698Z,0.98
2022-10-06T12:24:19.957Z,0.73
2022-10-06T12:26:58.109Z,0.80
2022-10-06T12:29:39.381Z,1.02
2022-10-06T12:32:19.960Z,1.00
2022-10-06T12:34:58.201Z,1.20
2022-10-06T12:37:42.739Z,0.85
2022-10-06T12:40:48.010Z,1.00
2022-10-06T12:43:50.738Z,0.77
2022-10-06T12:46:27.089Z,0.88
2022-10-06T12:49:05.138Z,0.82
2022-10-06T12:51:35.256Z,0.90
2022-10-06T12:54:11.383Z,1.00
2022-10-06T12:56:42.927Z,0.90
2022-10-06T12:59:26.494Z,1.10
2022-10-06T13:01:58.340Z,0.95
2022-10-06T13:04:40.614Z,0.80
2022-10-06T13:07:16.509Z,0.80
2022-10-06T13:09:46.017Z,0.80
2022-10-06T13:12:24.417Z,0.98
2022-10-06T13:15:15.770Z,0.90
2022-10-06T13:17:47.378Z,0.70
2022-10-06T13:20:38.055Z,0.93
2022-10-06T13:23:20.326Z,1.00
2022-10-06T13:25:50.752Z,0.82
2022-10-06T13:28:26.461Z,1.13
2022-10-06T13:30:56.737Z,0.80
2022-10-06T13:33:26.982Z,0.80
2022-10-06T13:35:55.914Z,0.88
2022-10-06T13:38:24.214Z,1.00
2022-10-06T13:41:07.533Z,0.93
2022-10-06T13:43:41.127Z,0.73
2022-10-06T13:46:12.645Z,1.30
2022-10-06T13:48:46.933Z,0.98
2022-10-06T13:51:21.145Z,0.80
2022-10-06T13:53:51.614Z,1.00
2022-10-06T13:59:33.492Z,0.75
2022-10-06T14:02:16.443Z,1.10
2022-10-06T14:04:44.908Z,1.10
2022-10-06T14:07:14.883Z,1.00
2022-10-06T14:09:43.754Z,0.90
2022-10-06T14:12:15.830Z,1.02
2022-10-06T14:14:49.913Z,1.30
2022-10-06T14:17:23.792Z,1.00
2022-10-06T14:19:52.322Z,0.95
2022-10-06T14:22:31.468Z,1.10
2022-10-06T14:24:59.860Z,1.38
2022-10-06T14:27:28.084Z,1.40
2022-10-06T14:29:58.782Z,1.10
2022-10-06T14:32:27.291Z,1.00
2022-10-06T14:34:55.698Z,1.00
2022-10-06T14:37:23.967Z,1.10
2022-10-06T14:39:52.771Z,1.30
2022-10-06T14:42:24.510Z,1.02
2022-10-06T14:44:52.923Z,1.08
2022-10-06T14:47:22.537Z,1.15
2022-10-06T14:49:50.827Z,1.02
2022-10-06T14:52:19.487Z,1.00
2022-10-06T14:54:47.891Z,1.13
2022-10-06T14:57:16.076Z,1.20
2022-10-06T14:59:44.424Z,1.55
2022-10-06T15:02:12.671Z,1.27
2022-10-06T15:04:42.392Z,1.30
2022-10-06T15:07:28.016Z,1.52
2022-10-06T15:09:57.292Z,1.20
2022-10-06T15:12:25.556Z,1.38
2022-10-06T15:14:54.073Z,1.35
2022-10-06T15:17:23.094Z,1.30
2022-10-06T15:19:52.828Z,1.80
2022-10-06T15:22:22.107Z,1.27
2022-10-06T15:24:51.523Z,1.30
2022-10-06T15:27:37.069Z,1.38
2022-10-06T15:30:06.296Z,1.23
2022-10-06T15:32:34.603Z,1.45
2022-10-06T15:35:04.270Z,1.70
2022-10-06T15:37:32.533Z,1.25
2022-10-06T15:40:01.586Z,1.30
2022-10-06T15:42:29.915Z,1.33
2022-10-06T15:44:58.335Z,1.45
2022-10-06T15:47:26.896Z,1.10
2022-10-06T15:49:55.218Z,1.38
2022-10-06T15:52:24.866Z,1.35
2022-10-06T15:54:53.060Z,1.35
2022-10-06T15:57:22.258Z,1.60
2022-10-06T15:59:51.781Z,1.55
2022-10-06T16:02:21.143Z,2.05
2022-10-06T16:05:16.954Z,1.33
2022-10-06T16:07:46.622Z,2.10
2022-10-06T16:10:15.030Z,1.40
2022-10-06T16:12:43.316Z,2.00
2022-10-06T16:15:12.165Z,1.45
2022-10-06T16:17:40.379Z,1.77
2022-10-06T16:20:11.676Z,1.50
2022-10-06T16:22:40.375Z,1.30
2022-10-06T16:25:10.968Z,1.40
2022-10-06T16:27:39.579Z,1.13
2022-10-06T16:30:09.545Z,1.38
2022-10-06T16:32:38.100Z,1.60
2022-10-06T16:35:07.646Z,1.63
2022-10-06T16:37:35.951Z,2.15
2022-10-06T16:40:04.373Z,1.60
2022-10-06T16:42:34.116Z,1.25
2022-10-06T16:45:02.355Z,1.42
2022-10-06T16:47:30.670Z,1.27
2022-10-06T16:49:59.985Z,1.42
2022-10-06T16:52:28.366Z,1.75
2022-10-06T16:54:57.550Z,1.20
2022-10-06T16:57:26.103Z,1.30
2022-10-06T16:59:55.823Z,1.50
2022-10-06T17:02:24.112Z,1.50
2022-10-06T17:04:52.324Z,1.38
2022-10-06T17:07:20.685Z,1.80
2022-10-06T17:10:15.358Z,1.63
2022-10-06T17:12:37.727Z,1.77
2022-10-06T17:15:08.660Z,1.73
2022-10-06T17:17:37.283Z,1.80
2022-10-06T17:20:06.973Z,1.77
2022-10-06T17:22:35.298Z,1.75
2022-10-06T17:25:03.539Z,1.98
2022-10-06T17:27:32.821Z,1.65
2022-10-06T17:30:01.063Z,1.80
2022-10-06T17:32:30.823Z,1.50
2022-10-06T17:34:59.069Z,1.88
2022-10-06T17:37:27.980Z,1.88
2022-10-06T17:39:56.209Z,2.15
2022-10-06T17:42:24.643Z,2.00
2022-10-06T17:44:53.905Z,2.23
2022-10-06T17:47:22.208Z,2.10
2022-10-06T17:49:51.868Z,2.40
2022-10-06T17:52:24.054Z,1.87
2022-10-06T17:54:54.534Z,1.90
2022-10-06T17:57:22.849Z,2.00
2022-10-06T17:59:51.708Z,1.87
2022-10-06T18:02:20.135Z,2.43
2022-10-06T18:04:50.443Z,2.10
2022-10-06T18:07:20.122Z,2.13
2022-10-06T18:10:08.354Z,2.57
2022-10-06T18:12:38.776Z,2.17
2022-10-06T18:15:09.070Z,2.37
2022-10-06T18:17:37.308Z,2.30
2022-10-06T18:20:06.475Z,2.20
2022-10-06T18:22:36.119Z,2.40
2022-10-06T18:25:04.753Z,2.20
2022-10-06T18:27:33.479Z,2.03
2022-10-06T18:30:01.811Z,2.17
2022-10-06T18:38:09.256Z,2.47
2022-10-06T18:40:37.530Z,1.90
2022-10-06T18:43:06.273Z,2.20
2022-10-06T18:45:52.041Z,2.50
2022-10-06T18:48:37.775Z,2.43
2022-10-06T18:51:06.434Z,2.70
2022-10-06T18:53:36.388Z,2.50
2022-10-06T18:56:05.224Z,2.33
2022-10-06T18:58:33.644Z,2.83
2022-10-06T19:01:05.602Z,2.83
2022-10-06T19:03:34.226Z,2.57
2022-10-06T19:06:02.457Z,2.73
2022-10-06T19:08:30.866Z,2.10
2022-10-06T19:11:22.861Z,2.57
2022-10-06T19:13:52.307Z,2.50
2022-10-06T19:16:21.065Z,3.00
2022-10-06T19:18:49.443Z,2.37
2022-10-06T19:21:17.685Z,2.63
2022-10-06T19:23:46.312Z,3.23
2022-10-06T19:26:15.989Z,2.97
2022-10-06T19:28:45.252Z,2.80
2022-10-06T19:31:20.098Z,2.87
2022-10-06T19:33:49.402Z,2.57
2022-10-06T19:36:18.553Z,2.60
2022-10-06T19:38:46.951Z,2.80
2022-10-06T19:41:35.453Z,2.70
2022-10-06T19:44:04.856Z,3.00
2022-10-06T19:46:33.197Z,2.60
2022-10-06T19:49:05.786Z,2.50
2022-10-06T19:51:35.159Z,2.57
2022-10-06T19:54:04.818Z,3.10
2022-10-06T19:56:34.714Z,2.60
2022-10-06T19:59:04.143Z,2.37
2022-10-06T20:01:33.073Z,2.70
2022-10-06T20:04:03.686Z,2.87
2022-10-06T20:06:32.222Z,2.43
2022-10-06T20:09:05.723Z,2.80
2022-10-06T20:11:36.276Z,2.93
2022-10-06T20:14:04.752Z,2.57
2022-10-06T20:16:33.413Z,2.63
2022-10-06T20:19:01.811Z,2.43
2022-10-06T20:21:31.467Z,2.50
2022-10-06T20:24:01.638Z,2.53
2022-10-06T20:26:32.305Z,3.17
2022-10-06T20:29:03.581Z,3.33
2022-10-06T20:31:33.582Z,3.00
2022-10-06T20:34:03.575Z,2.90
2022-10-06T20:36:33.023Z,3.60
2022-10-06T20:39:20.985Z,3.23
2022-10-06T20:41:50.791Z,3.17
2022-10-06T20:44:20.889Z,3.30
2022-10-06T20:46:49.690Z,3.23
2022-10-06T20:49:18.658Z,3.27
2022-10-06T20:51:51.970Z,3.03
2022-10-06T20:54:21.454Z,3.07
2022-10-06T20:56:51.171Z,2.70
2022-10-06T20:59:21.663Z,3.50
2022-10-06T21:01:52.170Z,2.77
2022-10-06T21:04:21.244Z,2.97
2022-10-06T21:06:50.986Z,3.07
2022-10-06T21:09:20.577Z,2.80
2022-10-06T21:11:49.726Z,2.50
2022-10-06T21:14:18.391Z,3.17
2022-10-06T21:16:49.921Z,2.80
2022-10-06T21:19:19.900Z,3.60
2022-10-06T21:21:50.685Z,2.97
2022-10-06T21:24:19.377Z,2.67
2022-10-06T21:26:48.381Z,2.70
2022-10-06T21:29:17.309Z,2.87
2022-10-06T21:31:47.832Z,2.53
2022-10-06T21:34:16.214Z,2.67
2022-10-06T21:36:44.542Z,2.80
2022-10-06T21:39:13.740Z,2.70
2022-10-06T21:41:42.071Z,2.70
2022-10-06T21:44:11.853Z,2.87
2022-10-06T21:46:41.658Z,2.57
2022-10-06T21:49:13.414Z,2.57
2022-10-06T21:51:43.826Z,2.50
2022-10-06T21:54:12.056Z,3.00
2022-10-06T21:56:40.334Z,2.83
2022-10-06T21:59:09.099Z,2.50
2022-10-06T22:01:38.870Z,2.67
2022-10-06T22:04:07.490Z,2.33
2022-10-06T22:06:38.245Z,2.70
2022-10-06T22:09:08.077Z,2.23
2022-10-06T22:11:38.844Z,2.63
2022-10-06T22:14:08.814Z,2.53
2022-10-06T22:16:38.486Z,2.93
2022-10-06T22:19:09.105Z,2.50
2022-10-06T22:21:41.485Z,2.33
2022-10-06T22:24:11.609Z,2.70
2022-10-06T22:26:41.852Z,2.60
2022-10-06T22:29:12.361Z,2.10
2022-10-06T22:31:42.713Z,2.50
2022-10-06T22:34:13.534Z,2.50
2022-10-06T22:36:43.631Z,2.53
2022-10-06T22:39:12.083Z,2.60
2022-10-06T22:41:40.479Z,2.10
2022-10-06T22:44:08.837Z,2.30
2022-10-06T22:46:37.552Z,2.63
2022-10-06T22:49:06.423Z,2.77
2022-10-06T22:51:34.933Z,2.47
2022-10-06T22:54:05.072Z,2.60
2022-10-06T22:56:35.071Z,2.63
2022-10-06T22:59:03.648Z,2.90
2022-10-06T23:01:32.089Z,3.10
2022-10-06T23:04:00.357Z,2.57
2022-10-06T23:06:31.379Z,2.50
2022-10-06T23:09:01.136Z,2.60
2022-10-06T23:11:30.827Z,2.93
2022-10-06T23:13:59.144Z,2.60
2022-10-06T23:16:27.436Z,2.73
2022-10-06T23:18:56.117Z,2.80
2022-10-06T23:21:27.825Z,2.50
2022-10-06T23:23:59.785Z,2.40
2022-10-06T23:26:30.588Z,2.90
2022-10-06T23:29:01.833Z,2.80
2022-10-06T23:31:30.870Z,2.97
2022-10-06T23:33:59.407Z,3.90
2022-10-06T23:36:27.827Z,3.30
2022-10-06T23:38:56.096Z,3.00
2022-10-06T23:41:24.494Z,2.50
2022-10-06T23:43:54.182Z,2.63
2022-10-06T23:46:22.594Z,2.50
2022-10-06T23:48:50.856Z,2.60
2022-10-06T23:51:20.095Z,3.10
2022-10-06T23:53:49.465Z,3.20
2022-10-06T23:56:19.088Z,3.47
2022-10-06T23:58:48.573Z,3.30
